Boca Raton, FL (33432)

12:04 PM EDT on October 30, 2014 (GMT -0400)
Spanish Village | Change Station
CLOSE
Current Station
Personal Weather Station
Location: Boca Raton, FL
Elevation: 13 ft
Nearby Weather Stations

Elev 13 ft 26.36 °N, 80.09 °W | Updated 3 minutes ago

Clear
Clear
82.9 °F
Feels Like 86 °F
N
3.0
Wind Variable Wind from North
Gusts 3.0 mph

Today
High -- | Low -- °F
--% Chance of Precip.
Yesterday
High -- | Low -- °F
Precip. -- in
7:28 AM 6:39 PM
Waxing Crescent, 45% visible
Pressure 29.97 in
Visibility 10.0 miles
Clouds Few 3500 ft
Heat Index 86 °F
Dew Point 67 °F
Humidity 59%
Rainfall 0.00 in
Snow Depth Not available.
UV 8 out of 12
Pollen 3.90 out of 12
Air Quality Not available.
Flu Activity Not available.
METAR KPMP 301553Z 34004KT 10SM FEW035 29/17 A2996 RMK AO2 SLP147 T02940167

More Conditions Fewer Conditions

Pressure 29.97 in
Visibility 10.0 miles
Clouds Few 3500 ft
Heat Index 86 °F
Dew Point 67 °F
Humidity 59%
Rainfall 0.00 in
Snow Depth Not available.
UV 8 out of 12
Pollen 3.90 out of 12
Air Quality Not available.
Flu Activity Not available.
METAR KPMP 301553Z 34004KT 10SM FEW035 29/17 A2996 RMK AO2 SLP147 T02940167

More Conditions Fewer Conditions

10-Day Weather Forecast

Almanac

Astronomy

Oct. 30, 2014 Rise Set
Actual Time
Civil Twilight
Nautical Twilight
Astronomical Twilight
Moon
Length of Visible Light
Length of Day
Tomorrow will be .
, % of the Moon is Illuminated

Today's Extremes

State Highs State Lows

Community

WunderPhotos

Upload Photos

1,766,394 photos uploaded!

WunderBlogs® & News

Nearby

Air Quality

  Air Quality AQ Index Pollutant
Not available.

Snow Depth

Station Depth Elevation

Earthquake Activity

City Distance Mag. Time & Date
Minimum magnitude displayed is 2.5.

Coastal Water Temperatures

Place Temperature

Nearby Weather Stations